sensor_id;sensor_type;location;lat;lon;timestamp;temperature;humidity
4687;DHT22;2357;47.316;-1.348;2022-10-26T00:00:29;15.70;99.90
4687;DHT22;2357;47.316;-1.348;2022-10-26T00:02:55;15.70;99.90
4687;DHT22;2357;47.316;-1.348;2022-10-26T00:05:22;15.70;99.90
4687;DHT22;2357;47.316;-1.348;2022-10-26T00:07:48;15.70;99.90
4687;DHT22;2357;47.316;-1.348;2022-10-26T00:10:14;15.70;99.90
4687;DHT22;2357;47.316;-1.348;2022-10-26T00:12:39;15.80;99.90
4687;DHT22;2357;47.316;-1.348;2022-10-26T00:15:06;15.80;99.90
4687;DHT22;2357;47.316;-1.348;2022-10-26T00:17:32;15.80;99.90
4687;DHT22;2357;47.316;-1.348;2022-10-26T00:19:58;15.80;99.90
4687;DHT22;2357;47.316;-1.348;2022-10-26T00:22:25;15.90;99.90
4687;DHT22;2357;47.316;-1.348;2022-10-26T00:24:51;15.90;99.90
4687;DHT22;2357;47.316;-1.348;2022-10-26T00:27:16;15.90;99.90
4687;DHT22;2357;47.316;-1.348;2022-10-26T00:29:42;15.90;99.90
4687;DHT22;2357;47.316;-1.348;2022-10-26T00:32:08;15.90;99.90
4687;DHT22;2357;47.316;-1.348;2022-10-26T00:34:33;16.00;99.90
4687;DHT22;2357;47.316;-1.348;2022-10-26T00:36:59;15.90;99.90
4687;DHT22;2357;47.316;-1.348;2022-10-26T00:39:24;15.90;99.90
4687;DHT22;2357;47.316;-1.348;2022-10-26T00:41:50;15.80;99.90
4687;DHT22;2357;47.316;-1.348;2022-10-26T00:44:55;15.80;99.90
4687;DHT22;2357;47.316;-1.348;2022-10-26T00:50:04;15.60;99.90
4687;DHT22;2357;47.316;-1.348;2022-10-26T00:52:31;15.70;99.90
4687;DHT22;2357;47.316;-1.348;2022-10-26T00:54:57;15.70;99.90
4687;DHT22;2357;47.316;-1.348;2022-10-26T00:57:23;15.60;99.90
4687;DHT22;2357;47.316;-1.348;2022-10-26T00:59:50;15.60;99.90
4687;DHT22;2357;47.316;-1.348;2022-10-26T01:02:18;15.60;99.90
4687;DHT22;2357;47.316;-1.348;2022-10-26T01:04:45;15.60;99.90
4687;DHT22;2357;47.316;-1.348;2022-10-26T01:07:11;15.60;99.90
4687;DHT22;2357;47.316;-1.348;2022-10-26T01:09:38;15.60;99.90
4687;DHT22;2357;47.316;-1.348;2022-10-26T01:12:04;15.60;99.90
4687;DHT22;2357;47.316;-1.348;2022-10-26T01:14:30;15.60;99.90
4687;DHT22;2357;47.316;-1.348;2022-10-26T01:20:10;15.50;99.90
4687;DHT22;2357;47.316;-1.348;2022-10-26T01:23:44;15.60;99.90
4687;DHT22;2357;47.316;-1.348;2022-10-26T01:26:16;15.60;99.90
4687;DHT22;2357;47.316;-1.348;2022-10-26T01:31:45;15.60;99.90
4687;DHT22;2357;47.316;-1.348;2022-10-26T01:37:14;15.50;99.90
4687;DHT22;2357;47.316;-1.348;2022-10-26T01:39:47;15.50;99.90
4687;DHT22;2357;47.316;-1.348;2022-10-26T01:42:15;15.50;99.90
4687;DHT22;2357;47.316;-1.348;2022-10-26T01:44:46;15.40;99.90
4687;DHT22;2357;47.316;-1.348;2022-10-26T01:47:15;15.40;99.90
4687;DHT22;2357;47.316;-1.348;2022-10-26T01:49:45;15.40;99.90
4687;DHT22;2357;47.316;-1.348;2022-10-26T01:52:12;15.40;99.90
4687;DHT22;2357;47.316;-1.348;2022-10-26T01:54:38;15.30;99.90
4687;DHT22;2357;47.316;-1.348;2022-10-26T01:57:06;15.30;99.90
4687;DHT22;2357;47.316;-1.348;2022-10-26T01:59:47;15.30;99.90
4687;DHT22;2357;47.316;-1.348;2022-10-26T02:18:49;15.20;99.90
4687;DHT22;2357;47.316;-1.348;2022-10-26T02:21:20;15.20;99.90
4687;DHT22;2357;47.316;-1.348;2022-10-26T02:23:48;15.20;99.90
4687;DHT22;2357;47.316;-1.348;2022-10-26T02:26:19;15.20;99.90
4687;DHT22;2357;47.316;-1.348;2022-10-26T02:28:49;15.20;99.90
4687;DHT22;2357;47.316;-1.348;2022-10-26T02:31:16;15.20;99.90
4687;DHT22;2357;47.316;-1.348;2022-10-26T02:33:47;15.20;99.90
4687;DHT22;2357;47.316;-1.348;2022-10-26T02:36:17;15.10;99.90
4687;DHT22;2357;47.316;-1.348;2022-10-26T02:38:44;15.10;99.90
4687;DHT22;2357;47.316;-1.348;2022-10-26T02:41:13;15.10;99.90
4687;DHT22;2357;47.316;-1.348;2022-10-26T02:43:47;15.10;99.90
4687;DHT22;2357;47.316;-1.348;2022-10-26T02:46:16;15.10;99.90
4687;DHT22;2357;47.316;-1.348;2022-10-26T02:48:44;15.10;99.90
4687;DHT22;2357;47.316;-1.348;2022-10-26T02:51:16;15.00;99.90
4687;DHT22;2357;47.316;-1.348;2022-10-26T02:53:44;15.00;99.90
4687;DHT22;2357;47.316;-1.348;2022-10-26T02:56:21;15.00;99.90
4687;DHT22;2357;47.316;-1.348;2022-10-26T02:58:52;15.00;99.90
4687;DHT22;2357;47.316;-1.348;2022-10-26T03:01:20;15.00;99.90
4687;DHT22;2357;47.316;-1.348;2022-10-26T03:03:46;15.00;99.90
4687;DHT22;2357;47.316;-1.348;2022-10-26T03:06:19;15.00;99.90
4687;DHT22;2357;47.316;-1.348;2022-10-26T03:08:45;15.00;99.90
4687;DHT22;2357;47.316;-1.348;2022-10-26T03:11:11;15.00;99.90
4687;DHT22;2357;47.316;-1.348;2022-10-26T03:13:36;15.00;99.90
4687;DHT22;2357;47.316;-1.348;2022-10-26T03:16:02;15.00;99.90
4687;DHT22;2357;47.316;-1.348;2022-10-26T03:18:27;15.00;99.90
4687;DHT22;2357;47.316;-1.348;2022-10-26T03:20:53;15.00;99.90
4687;DHT22;2357;47.316;-1.348;2022-10-26T03:23:19;15.00;99.90
4687;DHT22;2357;47.316;-1.348;2022-10-26T03:25:44;14.90;99.90
4687;DHT22;2357;47.316;-1.348;2022-10-26T03:28:10;14.90;99.90
4687;DHT22;2357;47.316;-1.348;2022-10-26T03:30:35;14.90;99.90
4687;DHT22;2357;47.316;-1.348;2022-10-26T03:33:01;14.90;99.90
4687;DHT22;2357;47.316;-1.348;2022-10-26T03:35:27;14.90;99.90
4687;DHT22;2357;47.316;-1.348;2022-10-26T03:37:52;14.90;99.90
4687;DHT22;2357;47.316;-1.348;2022-10-26T03:40:18;14.90;99.90
4687;DHT22;2357;47.316;-1.348;2022-10-26T03:42:43;14.90;99.90
4687;DHT22;2357;47.316;-1.348;2022-10-26T03:45:09;14.80;99.90
4687;DHT22;2357;47.316;-1.348;2022-10-26T03:47:45;14.80;99.90
4687;DHT22;2357;47.316;-1.348;2022-10-26T03:50:12;14.80;99.90
4687;DHT22;2357;47.316;-1.348;2022-10-26T03:52:39;14.70;99.90
4687;DHT22;2357;47.316;-1.348;2022-10-26T03:55:05;14.70;99.90
4687;DHT22;2357;47.316;-1.348;2022-10-26T03:57:30;14.70;99.90
4687;DHT22;2357;47.316;-1.348;2022-10-26T03:59:56;14.70;99.90
4687;DHT22;2357;47.316;-1.348;2022-10-26T04:02:22;14.70;99.90
4687;DHT22;2357;47.316;-1.348;2022-10-26T04:04:48;14.70;99.90
4687;DHT22;2357;47.316;-1.348;2022-10-26T04:07:14;14.70;99.90
4687;DHT22;2357;47.316;-1.348;2022-10-26T04:09:39;14.70;99.90
4687;DHT22;2357;47.316;-1.348;2022-10-26T04:12:05;14.70;99.90
4687;DHT22;2357;47.316;-1.348;2022-10-26T04:14:31;14.70;99.90
4687;DHT22;2357;47.316;-1.348;2022-10-26T04:16:56;14.70;99.90
4687;DHT22;2357;47.316;-1.348;2022-10-26T04:19:22;14.70;99.90
4687;DHT22;2357;47.316;-1.348;2022-10-26T04:21:50;14.60;99.90
4687;DHT22;2357;47.316;-1.348;2022-10-26T04:24:15;14.60;99.90
4687;DHT22;2357;47.316;-1.348;2022-10-26T04:26:41;14.60;99.90
4687;DHT22;2357;47.316;-1.348;2022-10-26T04:29:07;14.60;99.90
4687;DHT22;2357;47.316;-1.348;2022-10-26T04:31:33;14.60;99.90
4687;DHT22;2357;47.316;-1.348;2022-10-26T04:33:59;14.60;99.90
4687;DHT22;2357;47.316;-1.348;2022-10-26T04:36:24;14.60;99.90
4687;DHT22;2357;47.316;-1.348;2022-10-26T04:38:50;14.60;99.90
4687;DHT22;2357;47.316;-1.348;2022-10-26T04:41:16;14.60;99.90
4687;DHT22;2357;47.316;-1.348;2022-10-26T04:43:41;14.60;99.90
4687;DHT22;2357;47.316;-1.348;2022-10-26T04:46:07;13.90;99.90
4687;DHT22;2357;47.316;-1.348;2022-10-26T04:48:32;14.50;99.90
4687;DHT22;2357;47.316;-1.348;2022-10-26T04:50:59;14.50;99.90
4687;DHT22;2357;47.316;-1.348;2022-10-26T04:53:25;14.50;99.90
4687;DHT22;2357;47.316;-1.348;2022-10-26T04:55:58;14.50;99.90
4687;DHT22;2357;47.316;-1.348;2022-10-26T04:58:24;14.50;99.90
4687;DHT22;2357;47.316;-1.348;2022-10-26T05:00:50;14.50;99.90
4687;DHT22;2357;47.316;-1.348;2022-10-26T05:03:16;14.50;99.90
4687;DHT22;2357;47.316;-1.348;2022-10-26T05:05:41;14.50;99.90
4687;DHT22;2357;47.316;-1.348;2022-10-26T05:08:07;14.50;99.90
4687;DHT22;2357;47.316;-1.348;2022-10-26T05:10:33;14.50;99.90
4687;DHT22;2357;47.316;-1.348;2022-10-26T05:12:59;14.60;99.90
4687;DHT22;2357;47.316;-1.348;2022-10-26T05:15:25;14.60;99.90
4687;DHT22;2357;47.316;-1.348;2022-10-26T05:17:59;14.70;99.90
4687;DHT22;2357;47.316;-1.348;2022-10-26T05:20:26;14.70;99.90
4687;DHT22;2357;47.316;-1.348;2022-10-26T05:22:57;14.70;99.90
4687;DHT22;2357;47.316;-1.348;2022-10-26T05:25:23;14.60;99.90
4687;DHT22;2357;47.316;-1.348;2022-10-26T05:27:49;14.60;99.90
4687;DHT22;2357;47.316;-1.348;2022-10-26T05:30:15;14.60;99.90
4687;DHT22;2357;47.316;-1.348;2022-10-26T05:32:40;14.60;99.90
4687;DHT22;2357;47.316;-1.348;2022-10-26T05:35:06;14.60;99.90
4687;DHT22;2357;47.316;-1.348;2022-10-26T05:37:32;14.60;99.90
4687;DHT22;2357;47.316;-1.348;2022-10-26T05:39:57;14.60;99.90
4687;DHT22;2357;47.316;-1.348;2022-10-26T05:42:23;14.70;99.90
4687;DHT22;2357;47.316;-1.348;2022-10-26T05:44:50;14.70;99.90
4687;DHT22;2357;47.316;-1.348;2022-10-26T05:47:15;14.70;99.90
4687;DHT22;2357;47.316;-1.348;2022-10-26T05:49:41;14.60;99.90
4687;DHT22;2357;47.316;-1.348;2022-10-26T05:52:06;14.70;99.90
4687;DHT22;2357;47.316;-1.348;2022-10-26T05:54:32;14.70;99.90
4687;DHT22;2357;47.316;-1.348;2022-10-26T05:56:58;14.70;99.90
4687;DHT22;2357;47.316;-1.348;2022-10-26T05:59:24;14.60;99.90
4687;DHT22;2357;47.316;-1.348;2022-10-26T06:02:13;14.60;99.90
4687;DHT22;2357;47.316;-1.348;2022-10-26T06:04:43;14.60;99.90
4687;DHT22;2357;47.316;-1.348;2022-10-26T06:07:17;14.60;99.90
4687;DHT22;2357;47.316;-1.348;2022-10-26T06:09:44;14.60;99.90
4687;DHT22;2357;47.316;-1.348;2022-10-26T06:12:11;14.60;99.90
4687;DHT22;2357;47.316;-1.348;2022-10-26T06:14:37;14.60;99.90
4687;DHT22;2357;47.316;-1.348;2022-10-26T06:20:16;14.60;99.90
4687;DHT22;2357;47.316;-1.348;2022-10-26T06:25:35;14.60;99.90
4687;DHT22;2357;47.316;-1.348;2022-10-26T06:28:23;14.60;99.90
4687;DHT22;2357;47.316;-1.348;2022-10-26T06:30:51;14.60;99.90
4687;DHT22;2357;47.316;-1.348;2022-10-26T06:33:17;14.60;99.90
4687;DHT22;2357;47.316;-1.348;2022-10-26T06:38:33;14.60;99.90
4687;DHT22;2357;47.316;-1.348;2022-10-26T06:41:00;14.60;99.90
4687;DHT22;2357;47.316;-1.348;2022-10-26T06:43:28;14.60;99.90
4687;DHT22;2357;47.316;-1.348;2022-10-26T06:51:45;14.50;99.90
4687;DHT22;2357;47.316;-1.348;2022-10-26T06:54:47;14.60;99.90
4687;DHT22;2357;47.316;-1.348;2022-10-26T06:57:15;14.60;99.90
4687;DHT22;2357;47.316;-1.348;2022-10-26T06:59:56;14.60;99.90
4687;DHT22;2357;47.316;-1.348;2022-10-26T07:02:23;14.60;99.90
4687;DHT22;2357;47.316;-1.348;2022-10-26T07:04:48;14.70;99.90
4687;DHT22;2357;47.316;-1.348;2022-10-26T07:07:19;14.70;99.90
4687;DHT22;2357;47.316;-1.348;2022-10-26T07:09:45;14.70;99.90
4687;DHT22;2357;47.316;-1.348;2022-10-26T07:12:11;14.80;99.90
4687;DHT22;2357;47.316;-1.348;2022-10-26T07:14:36;14.80;99.90
4687;DHT22;2357;47.316;-1.348;2022-10-26T07:17:02;14.90;99.90
4687;DHT22;2357;47.316;-1.348;2022-10-26T07:19:28;14.90;99.90
4687;DHT22;2357;47.316;-1.348;2022-10-26T07:21:55;15.00;99.90
4687;DHT22;2357;47.316;-1.348;2022-10-26T07:24:27;15.00;99.90
4687;DHT22;2357;47.316;-1.348;2022-10-26T07:26:54;15.00;99.90
4687;DHT22;2357;47.316;-1.348;2022-10-26T07:29:21;14.90;99.90
4687;DHT22;2357;47.316;-1.348;2022-10-26T07:31:46;15.00;99.90
4687;DHT22;2357;47.316;-1.348;2022-10-26T07:34:12;14.90;99.90
4687;DHT22;2357;47.316;-1.348;2022-10-26T07:36:38;14.90;99.90
4687;DHT22;2357;47.316;-1.348;2022-10-26T07:39:04;14.90;99.90
4687;DHT22;2357;47.316;-1.348;2022-10-26T07:41:30;15.00;99.90
4687;DHT22;2357;47.316;-1.348;2022-10-26T07:43:56;15.00;99.90
4687;DHT22;2357;47.316;-1.348;2022-10-26T07:46:22;15.00;99.90
4687;DHT22;2357;47.316;-1.348;2022-10-26T07:48:47;15.00;99.90
4687;DHT22;2357;47.316;-1.348;2022-10-26T07:51:13;15.10;99.90
4687;DHT22;2357;47.316;-1.348;2022-10-26T07:53:39;15.20;99.90
4687;DHT22;2357;47.316;-1.348;2022-10-26T07:56:05;15.20;99.90
4687;DHT22;2357;47.316;-1.348;2022-10-26T07:58:31;15.20;99.90
4687;DHT22;2357;47.316;-1.348;2022-10-26T08:00:57;15.30;99.90
4687;DHT22;2357;47.316;-1.348;2022-10-26T08:03:29;15.30;99.90
4687;DHT22;2357;47.316;-1.348;2022-10-26T08:05:55;15.30;99.90
4687;DHT22;2357;47.316;-1.348;2022-10-26T08:08:20;15.40;99.90
4687;DHT22;2357;47.316;-1.348;2022-10-26T08:10:46;15.40;99.90
4687;DHT22;2357;47.316;-1.348;2022-10-26T08:13:13;15.50;99.90
4687;DHT22;2357;47.316;-1.348;2022-10-26T08:15:39;15.50;99.90
4687;DHT22;2357;47.316;-1.348;2022-10-26T08:18:05;15.60;99.90
4687;DHT22;2357;47.316;-1.348;2022-10-26T08:20:31;15.60;99.90
4687;DHT22;2357;47.316;-1.348;2022-10-26T08:22:58;15.60;99.90
4687;DHT22;2357;47.316;-1.348;2022-10-26T08:25:24;15.70;99.90
4687;DHT22;2357;47.316;-1.348;2022-10-26T08:27:50;15.80;99.90
4687;DHT22;2357;47.316;-1.348;2022-10-26T08:30:16;15.80;99.90
4687;DHT22;2357;47.316;-1.348;2022-10-26T08:32:42;15.90;99.90
4687;DHT22;2357;47.316;-1.348;2022-10-26T08:35:08;15.90;99.90
4687;DHT22;2357;47.316;-1.348;2022-10-26T08:37:34;16.00;99.90
4687;DHT22;2357;47.316;-1.348;2022-10-26T08:40:02;16.10;99.90
4687;DHT22;2357;47.316;-1.348;2022-10-26T08:42:39;16.10;99.90
4687;DHT22;2357;47.316;-1.348;2022-10-26T08:45:22;16.20;99.90
4687;DHT22;2357;47.316;-1.348;2022-10-26T08:47:53;16.20;99.90
4687;DHT22;2357;47.316;-1.348;2022-10-26T08:50:32;16.30;99.90
4687;DHT22;2357;47.316;-1.348;2022-10-26T08:55:44;16.40;99.90
4687;DHT22;2357;47.316;-1.348;2022-10-26T08:58:16;16.50;99.90
4687;DHT22;2357;47.316;-1.348;2022-10-26T09:00:46;16.60;99.90
4687;DHT22;2357;47.316;-1.348;2022-10-26T09:03:17;16.70;99.90
4687;DHT22;2357;47.316;-1.348;2022-10-26T09:09:02;16.80;99.90
4687;DHT22;2357;47.316;-1.348;2022-10-26T09:11:48;16.80;99.90
4687;DHT22;2357;47.316;-1.348;2022-10-26T09:22:45;16.80;99.90
4687;DHT22;2357;47.316;-1.348;2022-10-26T09:25:22;16.80;99.90
4687;DHT22;2357;47.316;-1.348;2022-10-26T09:27:55;16.90;99.90
4687;DHT22;2357;47.316;-1.348;2022-10-26T09:30:22;16.90;99.90
4687;DHT22;2357;47.316;-1.348;2022-10-26T09:32:51;16.90;99.90
4687;DHT22;2357;47.316;-1.348;2022-10-26T09:35:21;16.90;99.90
4687;DHT22;2357;47.316;-1.348;2022-10-26T09:38:05;16.90;99.90
4687;DHT22;2357;47.316;-1.348;2022-10-26T09:40:45;17.00;99.90
4687;DHT22;2357;47.316;-1.348;2022-10-26T09:43:19;17.00;99.90
4687;DHT22;2357;47.316;-1.348;2022-10-26T09:45:51;17.00;99.90
4687;DHT22;2357;47.316;-1.348;2022-10-26T09:48:38;17.10;99.90
4687;DHT22;2357;47.316;-1.348;2022-10-26T09:51:05;17.20;99.90
4687;DHT22;2357;47.316;-1.348;2022-10-26T09:53:31;17.20;99.90
4687;DHT22;2357;47.316;-1.348;2022-10-26T09:56:06;17.30;99.90
4687;DHT22;2357;47.316;-1.348;2022-10-26T09:58:40;17.30;99.90
4687;DHT22;2357;47.316;-1.348;2022-10-26T10:06:42;17.50;99.90
4687;DHT22;2357;47.316;-1.348;2022-10-26T10:09:15;17.60;99.90
4687;DHT22;2357;47.316;-1.348;2022-10-26T10:11:50;17.60;99.90
4687;DHT22;2357;47.316;-1.348;2022-10-26T10:14:26;17.70;99.90
4687;DHT22;2357;47.316;-1.348;2022-10-26T10:16:57;17.80;99.90
4687;DHT22;2357;47.316;-1.348;2022-10-26T10:21:51;17.90;99.90
4687;DHT22;2357;47.316;-1.348;2022-10-26T10:24:32;17.90;99.90
4687;DHT22;2357;47.316;-1.348;2022-10-26T10:27:15;17.80;99.90
4687;DHT22;2357;47.316;-1.348;2022-10-26T10:29:46;17.90;99.90
4687;DHT22;2357;47.316;-1.348;2022-10-26T10:32:22;18.00;99.90
4687;DHT22;2357;47.316;-1.348;2022-10-26T10:34:55;18.00;99.90
4687;DHT22;2357;47.316;-1.348;2022-10-26T10:37:38;18.10;99.90
4687;DHT22;2357;47.316;-1.348;2022-10-26T10:40:27;18.10;99.90
4687;DHT22;2357;47.316;-1.348;2022-10-26T10:43:12;18.20;99.90
4687;DHT22;2357;47.316;-1.348;2022-10-26T10:45:39;18.40;99.90
4687;DHT22;2357;47.316;-1.348;2022-10-26T10:50:38;18.70;99.90
4687;DHT22;2357;47.316;-1.348;2022-10-26T10:53:21;18.70;99.90
4687;DHT22;2357;47.316;-1.348;2022-10-26T11:07:04;18.90;99.90
4687;DHT22;2357;47.316;-1.348;2022-10-26T11:09:32;18.90;99.90
4687;DHT22;2357;47.316;-1.348;2022-10-26T11:12:09;19.00;99.90
4687;DHT22;2357;47.316;-1.348;2022-10-26T11:14:44;19.00;99.90
4687;DHT22;2357;47.316;-1.348;2022-10-26T11:19:56;19.00;99.90
4687;DHT22;2357;47.316;-1.348;2022-10-26T11:22:38;19.00;99.90
4687;DHT22;2357;47.316;-1.348;2022-10-26T11:25:11;19.10;99.90
4687;DHT22;2357;47.316;-1.348;2022-10-26T11:27:49;19.30;99.90
4687;DHT22;2357;47.316;-1.348;2022-10-26T11:30:21;19.40;99.90
4687;DHT22;2357;47.316;-1.348;2022-10-26T11:33:00;19.20;99.90
4687;DHT22;2357;47.316;-1.348;2022-10-26T11:35:36;19.20;99.90
4687;DHT22;2357;47.316;-1.348;2022-10-26T11:41:23;19.20;99.90
4687;DHT22;2357;47.316;-1.348;2022-10-26T11:43:53;19.30;99.90
4687;DHT22;2357;47.316;-1.348;2022-10-26T11:46:31;19.40;99.90
4687;DHT22;2357;47.316;-1.348;2022-10-26T11:49:21;19.50;99.90
4687;DHT22;2357;47.316;-1.348;2022-10-26T11:55:02;19.60;99.90
4687;DHT22;2357;47.316;-1.348;2022-10-26T11:57:34;19.80;99.90
4687;DHT22;2357;47.316;-1.348;2022-10-26T12:00:07;20.00;99.90
4687;DHT22;2357;47.316;-1.348;2022-10-26T12:02:40;20.20;99.90
4687;DHT22;2357;47.316;-1.348;2022-10-26T12:19:17;20.90;99.90
4687;DHT22;2357;47.316;-1.348;2022-10-26T12:21:45;21.10;99.90
4687;DHT22;2357;47.316;-1.348;2022-10-26T12:26:57;21.50;99.90
4687;DHT22;2357;47.316;-1.348;2022-10-26T12:31:51;21.50;99.90
4687;DHT22;2357;47.316;-1.348;2022-10-26T12:34:56;21.30;99.90
4687;DHT22;2357;47.316;-1.348;2022-10-26T12:39:46;21.20;99.90
4687;DHT22;2357;47.316;-1.348;2022-10-26T13:09:29;23.20;99.90
4687;DHT22;2357;47.316;-1.348;2022-10-26T13:12:00;23.60;99.90
4687;DHT22;2357;47.316;-1.348;2022-10-26T13:14:29;24.50;99.90
4687;DHT22;2357;47.316;-1.348;2022-10-26T13:16:56;24.40;99.90
4687;DHT22;2357;47.316;-1.348;2022-10-26T13:19:46;23.90;99.90
4687;DHT22;2357;47.316;-1.348;2022-10-26T13:22:23;25.10;99.90
4687;DHT22;2357;47.316;-1.348;2022-10-26T13:25:03;24.10;99.90
4687;DHT22;2357;47.316;-1.348;2022-10-26T13:30:18;26.80;99.90
4687;DHT22;2357;47.316;-1.348;2022-10-26T13:32:54;26.20;99.90
4687;DHT22;2357;47.316;-1.348;2022-10-26T13:35:23;26.10;99.90
4687;DHT22;2357;47.316;-1.348;2022-10-26T13:37:50;25.70;99.90
4687;DHT22;2357;47.316;-1.348;2022-10-26T13:40:27;25.20;99.90
4687;DHT22;2357;47.316;-1.348;2022-10-26T13:42:57;24.50;99.90
4687;DHT22;2357;47.316;-1.348;2022-10-26T13:45:31;24.20;99.90
4687;DHT22;2357;47.316;-1.348;2022-10-26T13:48:18;23.80;99.90
4687;DHT22;2357;47.316;-1.348;2022-10-26T13:50:48;23.40;99.90
4687;DHT22;2357;47.316;-1.348;2022-10-26T13:59:00;22.60;99.90
4687;DHT22;2357;47.316;-1.348;2022-10-26T14:01:28;22.40;99.90
4687;DHT22;2357;47.316;-1.348;2022-10-26T14:03:54;22.50;99.90
4687;DHT22;2357;47.316;-1.348;2022-10-26T14:08:47;23.00;99.90
4687;DHT22;2357;47.316;-1.348;2022-10-26T14:11:20;23.40;99.90
4687;DHT22;2357;47.316;-1.348;2022-10-26T14:13:48;23.50;99.90
4687;DHT22;2357;47.316;-1.348;2022-10-26T14:16:17;23.60;99.90
4687;DHT22;2357;47.316;-1.348;2022-10-26T14:18:45;23.60;99.90
4687;DHT22;2357;47.316;-1.348;2022-10-26T14:21:17;23.70;99.90
4687;DHT22;2357;47.316;-1.348;2022-10-26T14:23:49;23.50;99.90
4687;DHT22;2357;47.316;-1.348;2022-10-26T14:26:36;23.50;99.90
4687;DHT22;2357;47.316;-1.348;2022-10-26T14:29:02;23.50;99.90
4687;DHT22;2357;47.316;-1.348;2022-10-26T14:31:30;23.40;99.90
4687;DHT22;2357;47.316;-1.348;2022-10-26T14:33:58;23.40;99.90
4687;DHT22;2357;47.316;-1.348;2022-10-26T14:39:06;23.50;99.90
4687;DHT22;2357;47.316;-1.348;2022-10-26T14:41:34;23.60;99.90
4687;DHT22;2357;47.316;-1.348;2022-10-26T14:44:01;23.60;99.90
4687;DHT22;2357;47.316;-1.348;2022-10-26T14:46:33;23.50;99.90
4687;DHT22;2357;47.316;-1.348;2022-10-26T14:49:00;23.50;99.90
4687;DHT22;2357;47.316;-1.348;2022-10-26T14:51:29;23.50;99.90
4687;DHT22;2357;47.316;-1.348;2022-10-26T14:53:58;24.50;99.90
4687;DHT22;2357;47.316;-1.348;2022-10-26T14:56:45;26.00;99.90
4687;DHT22;2357;47.316;-1.348;2022-10-26T14:59:21;25.40;99.90
4687;DHT22;2357;47.316;-1.348;2022-10-26T15:01:58;24.40;99.90
4687;DHT22;2357;47.316;-1.348;2022-10-26T15:04:59;23.60;99.90
4687;DHT22;2357;47.316;-1.348;2022-10-26T15:07:34;23.00;99.90
4687;DHT22;2357;47.316;-1.348;2022-10-26T15:10:01;22.70;99.90
4687;DHT22;2357;47.316;-1.348;2022-10-26T15:15:24;22.20;99.90
4687;DHT22;2357;47.316;-1.348;2022-10-26T15:17:52;22.30;99.90
4687;DHT22;2357;47.316;-1.348;2022-10-26T15:20:21;22.30;99.90
4687;DHT22;2357;47.316;-1.348;2022-10-26T15:22:55;22.10;99.90
4687;DHT22;2357;47.316;-1.348;2022-10-26T15:25:25;22.00;99.90
4687;DHT22;2357;47.316;-1.348;2022-10-26T15:27:51;21.90;99.90
4687;DHT22;2357;47.316;-1.348;2022-10-26T15:30:26;21.70;99.90
4687;DHT22;2357;47.316;-1.348;2022-10-26T15:32:53;21.60;99.90
4687;DHT22;2357;47.316;-1.348;2022-10-26T15:35:28;21.50;99.90
4687;DHT22;2357;47.316;-1.348;2022-10-26T15:37:55;21.50;99.90
4687;DHT22;2357;47.316;-1.348;2022-10-26T15:40:22;21.40;99.90
4687;DHT22;2357;47.316;-1.348;2022-10-26T15:42:53;21.40;99.90
4687;DHT22;2357;47.316;-1.348;2022-10-26T15:45:24;21.30;99.90
4687;DHT22;2357;47.316;-1.348;2022-10-26T15:47:52;21.20;99.90
4687;DHT22;2357;47.316;-1.348;2022-10-26T15:50:23;21.10;99.90
4687;DHT22;2357;47.316;-1.348;2022-10-26T15:52:49;21.10;99.90
4687;DHT22;2357;47.316;-1.348;2022-10-26T15:55:19;21.00;99.90
4687;DHT22;2357;47.316;-1.348;2022-10-26T15:57:45;20.90;99.90
4687;DHT22;2357;47.316;-1.348;2022-10-26T16:00:15;21.00;99.90
4687;DHT22;2357;47.316;-1.348;2022-10-26T16:02:41;20.80;99.90
4687;DHT22;2357;47.316;-1.348;2022-10-26T16:05:10;20.80;99.90
4687;DHT22;2357;47.316;-1.348;2022-10-26T16:07:37;20.80;99.90
4687;DHT22;2357;47.316;-1.348;2022-10-26T16:10:04;20.80;99.90
4687;DHT22;2357;47.316;-1.348;2022-10-26T16:12:30;20.80;99.90
4687;DHT22;2357;47.316;-1.348;2022-10-26T16:14:55;20.80;99.90
4687;DHT22;2357;47.316;-1.348;2022-10-26T16:17:21;20.80;99.90
4687;DHT22;2357;47.316;-1.348;2022-10-26T16:19:47;20.90;99.90
4687;DHT22;2357;47.316;-1.348;2022-10-26T16:22:12;20.80;99.90
4687;DHT22;2357;47.316;-1.348;2022-10-26T16:24:38;20.80;99.90
4687;DHT22;2357;47.316;-1.348;2022-10-26T16:27:04;20.80;99.90
4687;DHT22;2357;47.316;-1.348;2022-10-26T16:29:30;20.70;99.90
4687;DHT22;2357;47.316;-1.348;2022-10-26T16:31:56;20.70;99.90
4687;DHT22;2357;47.316;-1.348;2022-10-26T16:34:21;20.60;99.90
4687;DHT22;2357;47.316;-1.348;2022-10-26T16:36:47;20.60;99.90
4687;DHT22;2357;47.316;-1.348;2022-10-26T16:39:13;20.50;99.90
4687;DHT22;2357;47.316;-1.348;2022-10-26T16:41:38;20.40;99.90
4687;DHT22;2357;47.316;-1.348;2022-10-26T16:44:04;20.20;99.90
4687;DHT22;2357;47.316;-1.348;2022-10-26T16:46:29;20.20;99.90
4687;DHT22;2357;47.316;-1.348;2022-10-26T16:48:55;20.10;99.90
4687;DHT22;2357;47.316;-1.348;2022-10-26T16:51:25;20.00;99.90
4687;DHT22;2357;47.316;-1.348;2022-10-26T16:53:53;20.00;99.90
4687;DHT22;2357;47.316;-1.348;2022-10-26T16:56:25;20.00;99.90
4687;DHT22;2357;47.316;-1.348;2022-10-26T16:58:51;19.90;99.90
4687;DHT22;2357;47.316;-1.348;2022-10-26T17:01:18;19.90;99.90
4687;DHT22;2357;47.316;-1.348;2022-10-26T17:03:46;19.80;99.90
4687;DHT22;2357;47.316;-1.348;2022-10-26T17:06:12;19.80;99.90
4687;DHT22;2357;47.316;-1.348;2022-10-26T17:08:38;19.70;99.90
4687;DHT22;2357;47.316;-1.348;2022-10-26T17:11:06;19.80;99.90
4687;DHT22;2357;47.316;-1.348;2022-10-26T17:13:33;19.70;99.90
4687;DHT22;2357;47.316;-1.348;2022-10-26T17:16:03;19.60;99.90
4687;DHT22;2357;47.316;-1.348;2022-10-26T17:18:30;19.60;99.90
4687;DHT22;2357;47.316;-1.348;2022-10-26T17:20:56;19.50;99.90
4687;DHT22;2357;47.316;-1.348;2022-10-26T17:23:22;19.50;99.90
4687;DHT22;2357;47.316;-1.348;2022-10-26T17:25:47;19.40;99.90
4687;DHT22;2357;47.316;-1.348;2022-10-26T17:28:13;19.50;99.90
4687;DHT22;2357;47.316;-1.348;2022-10-26T17:30:39;19.40;99.90
4687;DHT22;2357;47.316;-1.348;2022-10-26T17:33:05;19.40;99.90
4687;DHT22;2357;47.316;-1.348;2022-10-26T17:35:32;19.40;99.90
4687;DHT22;2357;47.316;-1.348;2022-10-26T17:37:58;19.20;99.90
4687;DHT22;2357;47.316;-1.348;2022-10-26T17:40:23;19.10;99.90
4687;DHT22;2357;47.316;-1.348;2022-10-26T17:42:49;19.10;99.90
4687;DHT22;2357;47.316;-1.348;2022-10-26T17:45:15;19.10;99.90
4687;DHT22;2357;47.316;-1.348;2022-10-26T17:47:40;19.00;99.90
4687;DHT22;2357;47.316;-1.348;2022-10-26T17:50:07;19.10;99.90
4687;DHT22;2357;47.316;-1.348;2022-10-26T17:52:32;19.00;99.90
4687;DHT22;2357;47.316;-1.348;2022-10-26T17:54:58;18.90;99.90
4687;DHT22;2357;47.316;-1.348;2022-10-26T17:57:24;18.90;99.90
4687;DHT22;2357;47.316;-1.348;2022-10-26T17:59:49;18.90;99.90
4687;DHT22;2357;47.316;-1.348;2022-10-26T18:02:15;18.90;99.90
4687;DHT22;2357;47.316;-1.348;2022-10-26T18:04:40;18.90;99.90
4687;DHT22;2357;47.316;-1.348;2022-10-26T18:07:06;18.70;99.90
4687;DHT22;2357;47.316;-1.348;2022-10-26T18:09:32;18.60;99.90
4687;DHT22;2357;47.316;-1.348;2022-10-26T18:11:57;18.50;99.90
4687;DHT22;2357;47.316;-1.348;2022-10-26T18:14:23;18.30;99.90
4687;DHT22;2357;47.316;-1.348;2022-10-26T18:16:49;18.30;99.90
4687;DHT22;2357;47.316;-1.348;2022-10-26T18:19:15;18.40;99.90
4687;DHT22;2357;47.316;-1.348;2022-10-26T18:21:40;18.50;99.90
4687;DHT22;2357;47.316;-1.348;2022-10-26T18:24:07;18.50;99.90
4687;DHT22;2357;47.316;-1.348;2022-10-26T18:26:33;18.50;99.90
4687;DHT22;2357;47.316;-1.348;2022-10-26T18:29:00;18.50;99.90
4687;DHT22;2357;47.316;-1.348;2022-10-26T18:31:27;18.40;99.90